createdAt,value
2019-05-12T00:00:23.503Z,93883.03
2019-05-12T00:02:53.014Z,93891.17
2019-05-12T00:05:20.930Z,93894.16
2019-05-12T00:07:49.320Z,93892.05
2019-05-12T00:10:17.879Z,93897.97
2019-05-12T00:12:49.022Z,93903.38
2019-05-12T00:15:19.281Z,93902.51
2019-05-12T00:17:48.258Z,93900.88
2019-05-12T00:20:18.179Z,93909.82
2019-05-12T00:22:50.330Z,93907.78
2019-05-12T00:25:18.608Z,93908.98
2019-05-12T00:27:49.016Z,93911.09
2019-05-12T00:30:39.373Z,93912.84
2019-05-12T00:33:10.812Z,93911.53
2019-05-12T00:35:39.821Z,93907.63
2019-05-12T00:38:09.130Z,93903.02
2019-05-12T00:40:39.474Z,93906.95
2019-05-12T00:43:08.660Z,93918.33
2019-05-12T00:45:38.487Z,93920.06
2019-05-12T00:48:09.691Z,93919.27
2019-05-12T00:50:38.742Z,93926.06
2019-05-12T00:53:09.184Z,93919.27
2019-05-12T00:55:38.272Z,93930.75
2019-05-12T00:58:08.314Z,93945.47
2019-05-12T01:00:40.611Z,93942.56
2019-05-12T01:03:08.617Z,93948.92
2019-05-12T01:05:38.441Z,93950.63
2019-05-12T01:08:09.120Z,93968.46
2019-05-12T01:10:38.919Z,93959.63
2019-05-12T01:13:08.523Z,93969.73
2019-05-12T01:15:37.958Z,93958.66
2019-05-12T01:18:05.977Z,93971.37
2019-05-12T01:20:34.293Z,93967.22
2019-05-12T01:23:02.454Z,93977.00
2019-05-12T01:25:30.377Z,93976.12
2019-05-12T01:27:59.204Z,93979.50
2019-05-12T01:30:28.403Z,93985.50
2019-05-12T01:32:58.109Z,93986.80
2019-05-12T01:35:28.122Z,93987.70
2019-05-12T01:38:01.369Z,93978.30
2019-05-12T01:40:29.571Z,93983.45
2019-05-12T01:42:58.429Z,93986.86
2019-05-12T01:45:28.777Z,93991.52
2019-05-12T01:47:59.238Z,94002.52
2019-05-12T01:50:28.330Z,94000.81
2019-05-12T01:52:58.732Z,94010.98
2019-05-12T01:55:28.046Z,94009.28
2019-05-12T01:57:57.764Z,94016.04
2019-05-12T02:00:28.340Z,94008.78
2019-05-12T02:02:58.487Z,94019.42
2019-05-12T02:05:28.057Z,94026.62
2019-05-12T02:07:58.384Z,94033.81
2019-05-12T02:10:28.656Z,94037.66
2019-05-12T02:12:59.478Z,94039.80
2019-05-12T02:15:27.836Z,94045.69
2019-05-12T02:17:58.990Z,94039.80
2019-05-12T02:20:28.867Z,94052.94
2019-05-12T02:22:58.325Z,94051.70
2019-05-12T02:25:28.807Z,94052.94
2019-05-12T02:27:58.315Z,94059.30
2019-05-12T02:30:30.309Z,94057.19
2019-05-12T02:32:59.057Z,94069.06
2019-05-12T02:35:27.135Z,94060.08
2019-05-12T02:37:55.474Z,94066.81
2019-05-12T02:40:25.089Z,94079.13
2019-05-12T02:42:55.378Z,94087.63
2019-05-12T02:45:25.300Z,94093.16
2019-05-12T02:47:54.374Z,94097.39
2019-05-12T02:50:35.299Z,94098.52
2019-05-12T02:53:05.219Z,94096.44
2019-05-12T02:55:34.846Z,94100.69
2019-05-12T02:58:06.201Z,94103.58
2019-05-12T03:00:35.685Z,94104.88
2019-05-12T03:03:07.727Z,94100.56
2019-05-12T03:05:36.960Z,94108.14
2019-05-12T03:08:05.275Z,94103.48
2019-05-12T03:10:35.530Z,94125.08
2019-05-12T03:13:04.463Z,94119.63
2019-05-12T03:15:36.335Z,94127.25
2019-05-12T03:18:06.143Z,94134.05
2019-05-12T03:20:35.206Z,94129.42
2019-05-12T03:23:05.748Z,94136.19
2019-05-12T03:25:35.596Z,94142.14
2019-05-12T03:28:07.324Z,94153.16
2019-05-12T03:30:38.481Z,94154.02
2019-05-12T03:33:10.330Z,94157.45
2019-05-12T03:35:42.281Z,94160.00
2019-05-12T03:38:07.192Z,94158.73
2019-05-12T03:40:38.343Z,94164.30
2019-05-12T03:43:06.163Z,94170.66
2019-05-12T03:45:35.982Z,94171.47
2019-05-12T03:48:04.968Z,94175.66
2019-05-12T03:50:35.368Z,94172.31
2019-05-12T03:53:09.642Z,94184.11
2019-05-12T03:55:38.028Z,94181.59
2019-05-12T03:58:04.851Z,94181.19
2019-05-12T04:00:35.918Z,94184.19
2019-05-12T04:03:04.771Z,94182.89
2019-05-12T04:05:34.822Z,94185.03
2019-05-12T04:08:05.463Z,94190.47
2019-05-12T04:10:35.393Z,94190.50
2019-05-12T04:13:04.589Z,94201.98
2019-05-12T04:15:34.646Z,94207.53
2019-05-12T04:18:05.527Z,94199.91
2019-05-12T04:20:35.618Z,94196.02
2019-05-12T04:23:05.816Z,94204.53
2019-05-12T04:25:50.407Z,94201.99
2019-05-12T04:28:04.838Z,94203.64
2019-05-12T04:30:35.510Z,94201.92
2019-05-12T04:33:04.773Z,94206.95
2019-05-12T04:35:34.822Z,94210.01
2019-05-12T04:38:04.534Z,94205.27
2019-05-12T04:40:35.918Z,94221.84
2019-05-12T04:43:05.734Z,94216.78
2019-05-12T04:45:34.705Z,94227.78
2019-05-12T04:48:05.146Z,94229.52
2019-05-12T04:50:35.481Z,94233.31
2019-05-12T04:53:06.030Z,94230.36
2019-05-12T04:55:35.500Z,94240.09
2019-05-12T04:58:04.598Z,94241.80
2019-05-12T05:00:34.982Z,94249.45
2019-05-12T05:03:05.065Z,94257.04
2019-05-12T05:05:35.408Z,94254.91
2019-05-12T05:08:04.329Z,94257.02
2019-05-12T05:10:34.200Z,94263.38
2019-05-12T05:13:05.138Z,94270.13
2019-05-12T05:15:34.778Z,94269.70
2019-05-12T05:18:06.424Z,94276.94
2019-05-12T05:20:34.452Z,94273.22
2019-05-12T05:23:03.764Z,94278.33
2019-05-12T05:25:34.111Z,94288.09
2019-05-12T05:28:03.931Z,94290.62
2019-05-12T05:30:33.902Z,94294.02
2019-05-12T05:33:04.747Z,94297.84
2019-05-12T05:35:35.089Z,94309.28
2019-05-12T05:38:04.560Z,94303.31
2019-05-12T05:40:35.287Z,94311.40
2019-05-12T05:43:12.550Z,94317.77
2019-05-12T05:45:35.711Z,94321.19
2019-05-12T05:48:07.449Z,94323.31
2019-05-12T05:50:34.677Z,94327.11
2019-05-12T05:53:03.952Z,94325.47
2019-05-12T05:55:34.275Z,94332.22
2019-05-12T05:58:07.828Z,94331.77
2019-05-12T06:00:35.147Z,94329.30
2019-05-12T06:03:05.165Z,94334.38
2019-05-12T06:05:34.596Z,94335.20
2019-05-12T06:08:04.198Z,94338.63
2019-05-12T06:10:36.201Z,94340.33
2019-05-12T06:13:04.267Z,94352.20
2019-05-12T06:15:38.142Z,94354.75
2019-05-12T06:18:03.863Z,94350.94
2019-05-12T06:20:37.444Z,94356.88
2019-05-12T06:23:04.321Z,94351.38
2019-05-12T06:25:45.629Z,94370.82
2019-05-12T06:28:08.888Z,94369.98
2019-05-12T06:30:44.111Z,94368.69
2019-05-12T06:33:07.584Z,94368.70
2019-05-12T06:35:40.624Z,94375.87
2019-05-12T06:38:05.489Z,94377.14
2019-05-12T06:40:45.293Z,94376.29
2019-05-12T06:43:14.109Z,94374.14
2019-05-12T06:45:45.071Z,94382.18
2019-05-12T06:48:14.037Z,94388.59
2019-05-12T06:50:44.148Z,94388.14
2019-05-12T06:53:13.963Z,94386.81
2019-05-12T06:55:43.334Z,94386.38
2019-05-12T06:58:13.955Z,94389.75
2019-05-12T07:00:43.792Z,94387.18
2019-05-12T07:03:14.349Z,94397.74
2019-05-12T07:05:44.810Z,94399.91
2019-05-12T07:08:11.777Z,94396.09
2019-05-12T07:10:44.238Z,94412.19
2019-05-12T07:13:14.816Z,94413.52
2019-05-12T07:15:40.761Z,94415.61
2019-05-12T07:18:14.030Z,94419.06
2019-05-12T07:20:43.537Z,94423.30
2019-05-12T07:23:14.230Z,94426.62
2019-05-12T07:25:44.448Z,94418.96
2019-05-12T07:28:14.794Z,94419.77
2019-05-12T07:30:46.588Z,94425.66
2019-05-12T07:33:14.793Z,94432.41
2019-05-12T07:35:44.530Z,94434.12
2019-05-12T07:38:20.837Z,94435.04
2019-05-12T07:40:45.993Z,94440.16
2019-05-12T07:43:18.621Z,94453.61
2019-05-12T07:45:46.198Z,94465.82
2019-05-12T07:48:15.006Z,94463.19
2019-05-12T07:50:50.136Z,94469.98
2019-05-12T07:53:16.478Z,94469.19
2019-05-12T07:55:49.282Z,94472.56
2019-05-12T07:58:18.687Z,94471.59
2019-05-12T08:00:45.427Z,94471.01
2019-05-12T08:03:20.967Z,94471.32
2019-05-12T08:05:44.439Z,94485.00
2019-05-12T08:08:14.300Z,94482.81
2019-05-12T08:10:44.166Z,94486.55
2019-05-12T08:13:14.606Z,94486.11
2019-05-12T08:15:45.745Z,94493.03
2019-05-12T08:18:13.858Z,94494.35
2019-05-12T08:20:43.591Z,94489.20
2019-05-12T08:23:13.935Z,94491.13
2019-05-12T08:25:43.754Z,94485.37
2019-05-12T08:28:16.227Z,94492.75
2019-05-12T08:30:50.476Z,94498.77
2019-05-12T08:33:14.602Z,94505.16
2019-05-12T08:35:43.879Z,94508.59
2019-05-12T08:38:14.289Z,94513.68
2019-05-12T08:40:46.453Z,94517.94
2019-05-12T08:43:14.648Z,94514.97
2019-05-12T08:45:44.395Z,94525.08
2019-05-12T08:48:17.179Z,94526.38
2019-05-12T08:50:46.021Z,94528.12
2019-05-12T08:53:20.552Z,94533.11
2019-05-12T08:55:43.850Z,94539.03
2019-05-12T08:58:26.536Z,94532.52
2019-05-12T09:00:48.218Z,94533.36
2019-05-12T09:03:14.165Z,94535.37
2019-05-12T09:05:44.532Z,94538.44
2019-05-12T09:08:13.779Z,94540.11
2019-05-12T09:10:44.945Z,94539.18
2019-05-12T09:13:14.191Z,94541.41
2019-05-12T09:15:44.237Z,94543.13
2019-05-12T09:18:14.472Z,94547.48
2019-05-12T09:20:48.971Z,94563.55
2019-05-12T09:23:13.638Z,94567.63
2019-05-12T09:25:45.327Z,94566.86
2019-05-12T09:28:13.600Z,94568.95
2019-05-12T09:30:47.660Z,94570.04
2019-05-12T09:33:11.115Z,94561.64
2019-05-12T09:35:43.848Z,94557.95
2019-05-12T09:38:21.197Z,94558.20
2019-05-12T09:40:43.730Z,94559.22
2019-05-12T09:43:13.636Z,94562.88
2019-05-12T09:45:49.775Z,94568.73
2019-05-12T09:48:14.065Z,94559.70
2019-05-12T09:50:45.925Z,94563.94
2019-05-12T09:53:14.366Z,94569.91
2019-05-12T09:55:43.922Z,94566.98
2019-05-12T09:58:14.139Z,94568.73
2019-05-12T10:00:43.442Z,94584.50
2019-05-12T10:03:13.855Z,94577.55
2019-05-12T10:05:44.245Z,94583.23
2019-05-12T10:08:13.926Z,94590.18
2019-05-12T10:10:46.237Z,94597.15
2019-05-12T10:13:13.814Z,94601.49
2019-05-12T10:15:42.199Z,94601.95
2019-05-12T10:18:11.406Z,94606.55
2019-05-12T10:20:40.070Z,94602.45
2019-05-12T10:23:10.310Z,94587.58
2019-05-12T10:25:38.507Z,94593.88
2019-05-12T10:28:11.309Z,94583.56
2019-05-12T10:30:36.994Z,94579.64
2019-05-12T10:33:05.289Z,94571.69
2019-05-12T10:35:35.122Z,94564.63
2019-05-12T10:38:08.594Z,94577.38
2019-05-12T10:40:33.803Z,94579.14
2019-05-12T10:43:04.415Z,94586.74
2019-05-12T10:45:33.303Z,94587.91
2019-05-12T10:48:03.637Z,94600.47
2019-05-12T10:50:34.059Z,94597.52
2019-05-12T10:53:04.396Z,94604.75
2019-05-12T10:55:33.573Z,94604.65
2019-05-12T10:58:06.415Z,94614.35
2019-05-12T11:00:33.826Z,94620.38
2019-05-12T11:03:10.275Z,94616.88
2019-05-12T11:05:33.955Z,94624.17
2019-05-12T11:08:06.539Z,94623.73
2019-05-12T11:10:32.846Z,94623.05
2019-05-12T11:13:05.871Z,94613.95
2019-05-12T11:15:33.972Z,94606.55
2019-05-12T11:18:10.481Z,94605.30
2019-05-12T11:20:38.788Z,94605.28
2019-05-12T11:23:06.958Z,94598.77
2019-05-12T11:25:35.738Z,94595.75
2019-05-12T11:28:04.225Z,94596.27
2019-05-12T11:30:34.539Z,94585.14
2019-05-12T11:33:04.307Z,94600.86
2019-05-12T11:35:33.161Z,94603.89
2019-05-12T11:38:01.124Z,94612.50
2019-05-12T11:40:29.769Z,94623.24
2019-05-12T11:43:00.895Z,94619.06
2019-05-12T11:45:28.696Z,94618.72
2019-05-12T11:48:05.014Z,94620.37
2019-05-12T11:50:27.355Z,94625.73
2019-05-12T11:52:55.722Z,94631.64
2019-05-12T11:55:29.891Z,94639.78
2019-05-12T11:57:54.544Z,94641.05
2019-05-12T12:00:24.393Z,94643.09
2019-05-12T12:02:52.652Z,94637.94
2019-05-12T12:05:23.393Z,94634.12
2019-05-12T12:07:52.847Z,94633.20
2019-05-12T12:10:20.696Z,94633.98
2019-05-12T12:12:49.415Z,94644.72
2019-05-12T12:15:30.290Z,94639.23
2019-05-12T12:17:58.026Z,94627.86
2019-05-12T12:20:26.665Z,94625.33
2019-05-12T12:22:54.560Z,94640.45
2019-05-12T12:25:27.554Z,94648.28
2019-05-12T12:27:55.822Z,94655.79
2019-05-12T12:30:24.129Z,94663.52
2019-05-12T12:32:57.136Z,94662.65
2019-05-12T12:35:23.334Z,94661.95
2019-05-12T12:37:53.923Z,94660.34
2019-05-12T12:40:21.720Z,94656.84
2019-05-12T12:42:49.949Z,94663.66
2019-05-12T12:45:46.575Z,94661.59
2019-05-12T12:48:19.405Z,94666.54
2019-05-12T12:50:45.489Z,94668.11
2019-05-12T12:53:13.894Z,94666.06
2019-05-12T12:55:43.639Z,94668.66
2019-05-12T12:58:14.096Z,94668.20
2019-05-12T13:00:47.216Z,94652.49
2019-05-12T13:03:14.397Z,94652.83
2019-05-12T13:05:43.859Z,94658.48
2019-05-12T13:08:11.955Z,94670.91
2019-05-12T13:10:45.744Z,94679.36
2019-05-12T13:13:10.773Z,94674.70
2019-05-12T13:15:39.220Z,94676.83
2019-05-12T13:18:09.205Z,94683.88
2019-05-12T13:20:38.103Z,94687.30
2019-05-12T13:23:06.717Z,94681.58
2019-05-12T13:25:38.810Z,94671.84
2019-05-12T13:28:10.267Z,94680.19
2019-05-12T13:30:45.504Z,94670.86
2019-05-12T13:33:08.681Z,94673.30
2019-05-12T13:35:35.959Z,94666.05
2019-05-12T13:38:04.529Z,94663.43
2019-05-12T13:40:37.623Z,94654.75
2019-05-12T13:43:03.890Z,94652.45
2019-05-12T13:45:33.629Z,94653.30
2019-05-12T13:48:03.903Z,94645.30
2019-05-12T13:50:32.018Z,94641.98
2019-05-12T13:53:01.027Z,94645.86
2019-05-12T13:55:31.420Z,94646.09
2019-05-12T13:57:59.987Z,94652.77
2019-05-12T14:00:28.192Z,94668.05
2019-05-12T14:03:03.558Z,94670.38
2019-05-12T14:05:27.110Z,94675.92
2019-05-12T14:07:57.337Z,94689.22
2019-05-12T14:10:25.815Z,94684.83
2019-05-12T14:12:54.454Z,94686.49
2019-05-12T14:15:24.873Z,94681.00
2019-05-12T14:17:54.099Z,94682.66
2019-05-12T14:20:23.848Z,94679.75
2019-05-12T14:22:53.742Z,94677.25
2019-05-12T14:25:29.818Z,94674.30
2019-05-12T14:27:53.622Z,94676.22
2019-05-12T14:30:24.549Z,94683.18
2019-05-12T14:32:55.194Z,94686.42
2019-05-12T14:35:23.463Z,94687.41
2019-05-12T14:37:53.748Z,94696.46
2019-05-12T14:40:29.870Z,94692.75
2019-05-12T14:42:54.359Z,94705.16
2019-05-12T14:45:27.851Z,94705.55
2019-05-12T14:47:54.089Z,94702.91
2019-05-12T14:50:21.718Z,94702.73
2019-05-12T14:52:50.147Z,94706.56
2019-05-12T14:55:19.426Z,94698.19
2019-05-12T14:57:48.051Z,94697.30
2019-05-12T15:00:21.101Z,94703.27
2019-05-12T15:02:47.404Z,94706.63
2019-05-12T15:05:15.526Z,94708.50
2019-05-12T15:07:50.964Z,94709.66
2019-05-12T15:10:14.892Z,94711.42
2019-05-12T15:12:44.081Z,94710.41
2019-05-12T15:15:15.658Z,94711.03
2019-05-12T15:17:44.318Z,94720.84
2019-05-12T15:20:13.771Z,94710.20
2019-05-12T15:22:50.924Z,94703.36
2019-05-12T15:25:14.218Z,94711.43
2019-05-12T15:27:46.020Z,94701.09
2019-05-12T15:30:22.379Z,94701.98
2019-05-12T15:32:43.491Z,94698.53
2019-05-12T15:35:13.737Z,94691.70
2019-05-12T15:37:43.533Z,94695.25
2019-05-12T15:40:14.475Z,94694.29
2019-05-12T15:42:44.942Z,94694.94
2019-05-12T15:45:16.640Z,94701.22
2019-05-12T15:47:44.550Z,94711.40
2019-05-12T15:50:14.631Z,94706.12
2019-05-12T15:52:45.505Z,94707.92
2019-05-12T15:55:17.887Z,94711.56
2019-05-12T15:57:46.419Z,94707.31
2019-05-12T16:00:16.898Z,94707.70
2019-05-12T16:02:45.804Z,94714.47
2019-05-12T16:05:14.725Z,94716.17
2019-05-12T16:07:44.212Z,94716.89
2019-05-12T16:10:15.256Z,94719.55
2019-05-12T16:12:44.027Z,94726.42
2019-05-12T16:15:17.098Z,94726.53
2019-05-12T16:17:44.059Z,94733.38
2019-05-12T16:20:14.202Z,94733.63
2019-05-12T16:22:45.153Z,94729.19
2019-05-12T16:25:15.237Z,94733.67
2019-05-12T16:27:44.575Z,94735.97
2019-05-12T16:30:14.058Z,94731.03
2019-05-12T16:32:47.491Z,94734.09
2019-05-12T16:35:14.737Z,94738.80
2019-05-12T16:37:44.233Z,94735.36
2019-05-12T16:40:13.791Z,94728.03
2019-05-12T16:42:48.317Z,94731.55
2019-05-12T16:45:14.336Z,94727.70
2019-05-12T16:47:44.861Z,94732.83
2019-05-12T16:50:15.969Z,94728.70
2019-05-12T16:52:45.306Z,94734.56
2019-05-12T16:55:13.027Z,94740.52
2019-05-12T16:57:50.058Z,94742.60
2019-05-12T17:00:13.840Z,94748.32
2019-05-12T17:02:42.264Z,94755.00
2019-05-12T17:05:15.554Z,94747.02
2019-05-12T17:07:44.099Z,94746.66
2019-05-12T17:10:16.491Z,94752.62
2019-05-12T17:12:43.864Z,94759.34
2019-05-12T17:15:15.314Z,94752.98
2019-05-12T17:17:44.791Z,94756.19
2019-05-12T17:20:16.419Z,94748.31
2019-05-12T17:22:54.063Z,94759.60
2019-05-12T17:25:15.752Z,94758.45
2019-05-12T17:27:45.148Z,94765.81
2019-05-12T17:30:13.630Z,94764.29
2019-05-12T17:32:54.838Z,94768.45
2019-05-12T17:35:14.540Z,94766.81
2019-05-12T17:37:43.114Z,94775.23
2019-05-12T17:40:15.522Z,94770.77
2019-05-12T17:42:43.838Z,94783.80
2019-05-12T17:45:17.956Z,94785.70
2019-05-12T17:47:41.196Z,94786.45
2019-05-12T17:50:10.438Z,94782.34
2019-05-12T17:52:39.340Z,94784.55
2019-05-12T17:55:10.625Z,94797.41
2019-05-12T17:57:37.639Z,94798.86
2019-05-12T18:00:10.423Z,94803.27
2019-05-12T18:02:35.824Z,94808.98
2019-05-12T18:05:07.679Z,94806.94
2019-05-12T18:07:35.218Z,94813.82
2019-05-12T18:10:04.262Z,94817.29
2019-05-12T18:12:36.560Z,94823.25
2019-05-12T18:15:04.219Z,94822.05
2019-05-12T18:17:33.854Z,94825.12
2019-05-12T18:20:04.162Z,94824.31
2019-05-12T18:22:33.942Z,94824.81
2019-05-12T18:25:04.366Z,94826.97
2019-05-12T18:27:34.965Z,94832.96
2019-05-12T18:30:04.490Z,94836.86
2019-05-12T18:32:32.841Z,94830.50
2019-05-12T18:35:01.460Z,94839.05
2019-05-12T18:37:29.984Z,94829.31
2019-05-12T18:39:58.367Z,94834.02
2019-05-12T18:42:26.251Z,94842.22
2019-05-12T18:44:54.755Z,94843.16
2019-05-12T18:47:31.905Z,94844.92
2019-05-12T18:49:54.172Z,94850.03
2019-05-12T18:52:23.616Z,94845.81
2019-05-12T18:54:55.215Z,94849.70
2019-05-12T18:57:23.788Z,94857.05
2019-05-12T18:59:55.094Z,94861.78
2019-05-12T19:02:28.161Z,94858.87
2019-05-12T19:04:54.097Z,94865.28
2019-05-12T19:07:35.902Z,94865.71
2019-05-12T19:09:52.364Z,94870.41
2019-05-12T19:12:29.465Z,94869.61
2019-05-12T19:14:54.618Z,94859.87
2019-05-12T19:17:24.160Z,94867.56
2019-05-12T19:19:59.650Z,94871.44
2019-05-12T19:22:24.211Z,94874.88
2019-05-12T19:24:56.757Z,94874.83
2019-05-12T19:27:24.087Z,94876.59
2019-05-12T19:29:54.573Z,94882.53
2019-05-12T19:32:27.912Z,94892.78
2019-05-12T19:34:54.610Z,94893.64
2019-05-12T19:37:28.091Z,94893.60
2019-05-12T19:39:53.855Z,94900.42
2019-05-12T19:42:24.425Z,94900.84
2019-05-12T19:44:55.872Z,94899.12
2019-05-12T19:47:33.173Z,94901.67
2019-05-12T19:49:53.546Z,94899.95
2019-05-12T19:52:24.399Z,94900.40
2019-05-12T19:54:52.730Z,94899.98
2019-05-12T19:57:25.530Z,94905.52
2019-05-12T19:59:53.377Z,94908.52
2019-05-12T20:02:23.699Z,94902.14
2019-05-12T20:04:56.384Z,94903.81
2019-05-12T20:07:23.319Z,94910.27
2019-05-12T20:10:00.206Z,94912.84
2019-05-12T20:12:24.997Z,94910.71
2019-05-12T20:14:56.723Z,94912.00
2019-05-12T20:17:24.951Z,94912.86
2019-05-12T20:19:53.978Z,94909.45
2019-05-12T20:22:24.361Z,94915.40
2019-05-12T20:24:53.722Z,94917.11
2019-05-12T20:27:24.655Z,94917.97
2019-05-12T20:29:54.091Z,94910.77
2019-05-12T20:32:24.055Z,94910.33
2019-05-12T20:34:55.257Z,94910.34
2019-05-12T20:37:22.665Z,94917.58
2019-05-12T20:39:51.173Z,94917.56
2019-05-12T20:42:23.652Z,94917.97
2019-05-12T20:44:57.714Z,94923.47
2019-05-12T20:47:24.059Z,94921.34
2019-05-12T20:49:52.836Z,94931.15
2019-05-12T20:52:26.349Z,94927.73
2019-05-12T20:54:59.703Z,94932.41
2019-05-12T20:57:26.304Z,94924.79
2019-05-12T20:59:58.224Z,94926.89
2019-05-12T21:02:27.615Z,94926.05
2019-05-12T21:05:00.865Z,94930.30
2019-05-12T21:07:27.149Z,94925.61
2019-05-12T21:09:56.009Z,94920.06
2019-05-12T21:12:26.189Z,94921.79
2019-05-12T21:15:05.304Z,94919.24
2019-05-12T21:17:39.710Z,94922.23
2019-05-12T21:19:59.402Z,94923.56
2019-05-12T21:22:25.997Z,94920.59
2019-05-12T21:24:55.737Z,94922.27
2019-05-12T21:27:23.140Z,94921.88
2019-05-12T21:29:53.988Z,94919.34
2019-05-12T21:32:24.009Z,94914.66
2019-05-12T21:34:52.300Z,94925.70
2019-05-12T21:37:21.218Z,94918.91
2019-05-12T21:39:51.458Z,94924.47
2019-05-12T21:42:19.444Z,94925.75
2019-05-12T21:44:49.022Z,94930.40
2019-05-12T21:47:17.325Z,94929.56
2019-05-12T21:49:48.533Z,94927.86
2019-05-12T21:52:15.830Z,94924.02
2019-05-12T21:54:44.133Z,94919.80
2019-05-12T21:57:12.286Z,94923.19
2019-05-12T21:59:40.665Z,94924.89
2019-05-12T22:02:09.265Z,94927.45
2019-05-12T22:04:41.282Z,94921.92
2019-05-12T22:07:07.631Z,94926.17
2019-05-12T22:09:41.428Z,94927.03
2019-05-12T22:12:04.951Z,94929.18
2019-05-12T22:14:36.555Z,94929.19
2019-05-12T22:17:05.163Z,94933.03
2019-05-12T22:19:37.628Z,94928.34
2019-05-12T22:22:04.401Z,94931.33
2019-05-12T22:24:37.295Z,94930.91
2019-05-12T22:27:05.060Z,94930.03
2019-05-12T22:29:34.250Z,94929.21
2019-05-12T22:32:01.961Z,94929.65
2019-05-12T22:34:37.220Z,94933.45
2019-05-12T22:37:00.880Z,94928.78
2019-05-12T22:39:33.957Z,94939.45
2019-05-12T22:41:59.370Z,94938.58
2019-05-12T22:44:28.007Z,94939.41
2019-05-12T22:46:56.477Z,94940.73
2019-05-12T22:49:24.739Z,94941.58
2019-05-12T22:51:54.568Z,94946.22
2019-05-12T22:54:24.282Z,94954.73
2019-05-12T22:56:55.251Z,94952.61
2019-05-12T22:59:24.063Z,94960.25
2019-05-12T23:01:54.162Z,94960.27
2019-05-12T23:04:25.975Z,94954.73
2019-05-12T23:06:51.814Z,94958.16
2019-05-12T23:09:25.858Z,94963.22
2019-05-12T23:11:50.113Z,94964.08
2019-05-12T23:14:22.415Z,94956.86
2019-05-12T23:16:50.281Z,94955.16
2019-05-12T23:19:18.159Z,94956.84
2019-05-12T23:21:49.218Z,94959.86
2019-05-12T23:24:16.260Z,94961.55
2019-05-12T23:26:47.726Z,94953.05
2019-05-12T23:29:14.841Z,94956.45
2019-05-12T23:31:43.127Z,94953.05
2019-05-12T23:36:40.989Z,94954.71
2019-05-12T23:39:08.891Z,94949.66
2019-05-12T23:41:37.580Z,94948.36
2019-05-12T23:44:07.246Z,94944.97
2019-05-12T23:46:37.044Z,94939.05
2019-05-12T23:49:05.524Z,94945.39
2019-05-12T23:51:34.201Z,94940.73
2019-05-12T23:54:03.796Z,94938.58
2019-05-12T23:56:33.861Z,94941.14
2019-05-12T23:59:04.448Z,94942.83
